Time;durP1;ratioP1;P1;durP2;ratioP2;P2;SDS_P1;SDS_P2;PMS_P1;PMS_P2;Temp;Humidity;BMP_temperature;BMP_pressure;BME280_temperature;BME280_humidity;BME280_pressure;Samples;Min_cycle;Max_cycle;Signal;HPM_P1;HPM_P2
2022/08/08 00:01:18;;;;;;;4.30;2.05;;;;;;;13.48;100.00;100246.94;5171740;27;20168;-50
2022/08/08 00:03:54;;;;;;;3.08;1.17;;;;;;;13.46;100.00;100252.81;5172124;27;20054;-48
2022/08/08 00:06:39;;;;;;;3.25;1.67;;;;;;;13.45;100.00;100262.22;5171789;27;20050;-50
2022/08/08 00:09:14;;;;;;;2.80;1.80;;;;;;;13.41;100.00;100261.34;5171969;27;20137;-52
2022/08/08 00:11:42;;;;;;;2.97;1.63;;;;;;;13.40;100.00;100255.06;5171843;27;20046;-48
2022/08/08 00:14:18;;;;;;;3.83;1.65;;;;;;;13.38;100.00;100262.88;5171698;27;20054;-48
2022/08/08 00:16:54;;;;;;;4.88;1.98;;;;;;;13.37;100.00;100266.00;5172218;27;20157;-48
2022/08/08 00:19:27;;;;;;;4.28;1.63;;;;;;;13.34;100.00;100267.50;5171518;27;20078;-48
2022/08/08 00:21:58;;;;;;;1.85;1.50;;;;;;;13.32;100.00;100267.03;5171804;27;20049;-49
2022/08/08 00:24:32;;;;;;;4.60;2.25;;;;;;;13.30;100.00;100268.56;5171468;27;20061;-48
2022/08/08 00:27:01;;;;;;;;;;;;;;;13.31;100.00;100270.16;5172259;27;20401;-49
2022/08/08 00:29:34;;;;;;;4.55;1.52;;;;;;;13.29;100.00;100261.44;5173288;27;19973;-48
2022/08/08 00:32:08;;;;;;;3.00;1.50;;;;;;;13.22;100.00;100262.03;5174992;27;20094;-51
2022/08/08 00:35:11;;;;;;;4.10;1.80;;;;;;;13.17;100.00;100260.38;5175162;27;20046;-48
2022/08/08 00:37:43;;;;;;;4.30;2.00;;;;;;;13.11;100.00;100261.78;5174758;27;20057;-49
2022/08/08 00:40:35;;;;;;;2.50;1.80;;;;;;;13.18;100.00;100261.94;5174864;27;20046;-50
2022/08/08 00:43:35;;;;;;;2.47;1.38;;;;;;;13.16;100.00;100266.22;5135757;27;20110;-48
2022/08/08 00:46:37;;;;;;;2.03;1.55;;;;;;;13.10;100.00;100276.72;5161246;27;20497;-50
2022/08/08 00:49:33;;;;;;;4.32;1.42;;;;;;;13.21;100.00;100270.66;5158872;27;20057;-48
2022/08/08 00:52:37;;;;;;;4.97;2.42;;;;;;;13.25;100.00;100277.88;5122341;27;20050;-48
2022/08/08 00:55:14;;;;;;;7.30;2.20;;;;;;;13.28;100.00;100277.19;5174575;27;20046;-48
2022/08/08 00:58:32;;;;;;;6.55;1.65;;;;;;;13.33;100.00;100274.16;5174803;27;20050;-48
2022/08/08 01:01:11;;;;;;;1.67;1.58;;;;;;;13.32;100.00;100272.53;5174753;27;20050;-48
2022/08/08 01:04:30;;;;;;;4.43;1.90;;;;;;;13.40;100.00;100281.81;5174294;27;20050;-48
2022/08/08 01:07:33;;;;;;;3.78;1.52;;;;;;;13.44;100.00;100288.19;5174433;27;20054;-49
2022/08/08 01:10:50;;;;;;;5.00;2.30;;;;;;;13.52;100.00;100289.16;5174347;27;20093;-49
2022/08/08 01:13:46;;;;;;;2.08;1.50;;;;;;;13.37;100.00;100291.56;5089562;28;20478;-48
2022/08/08 01:16:57;;;;;;;2.30;1.55;;;;;;;13.60;100.00;100282.66;5089615;28;20546;-51
2022/08/08 01:20:02;;;;;;;3.70;1.50;;;;;;;13.62;100.00;100272.88;5089715;28;20544;-50
2022/08/08 01:23:03;;;;;;;4.93;2.00;;;;;;;13.52;100.00;100280.88;5088813;28;20054;-51
2022/08/08 01:26:11;;;;;;;2.80;1.73;;;;;;;13.69;100.00;100279.69;5089011;28;20052;-52
2022/08/08 01:29:05;;;;;;;3.17;1.80;;;;;;;13.64;100.00;100275.28;5089543;28;20059;-49
2022/08/08 01:32:01;;;;;;;5.70;1.87;;;;;;;13.68;100.00;100267.09;5089329;28;20048;-49
2022/08/08 01:35:16;;;;;;;3.75;2.20;;;;;;;13.78;100.00;100272.03;5089603;28;20485;-51
2022/08/08 01:38:08;;;;;;;5.50;2.17;;;;;;;13.78;100.00;100267.31;5089213;28;20089;-49
2022/08/08 01:40:42;;;;;;;2.97;1.45;;;;;;;13.77;100.00;100274.00;5089139;28;20052;-49
2022/08/08 01:43:24;;;;;;;1.67;1.52;;;;;;;13.80;100.00;100275.25;5107452;27;20050;-50
2022/08/08 01:46:02;;;;;;;7.03;2.33;;;;;;;13.80;100.00;100281.56;5173720;27;20089;-51
2022/08/08 01:48:45;;;;;;;3.60;1.55;;;;;;;13.80;100.00;100278.00;5173536;27;20589;-49
2022/08/08 01:51:43;;;;;;;1.60;1.50;;;;;;;13.81;100.00;100271.34;5173765;27;20048;-52
2022/08/08 01:54:22;;;;;;;3.22;1.83;;;;;;;13.85;100.00;100270.25;5173526;27;20535;-51
2022/08/08 01:57:03;;;;;;;2.92;1.60;;;;;;;13.87;100.00;100278.97;5173860;27;20620;-47
2022/08/08 01:59:48;;;;;;;2.75;1.80;;;;;;;13.82;100.00;100278.44;5173543;27;20050;-50
2022/08/08 02:02:27;;;;;;;2.50;1.60;;;;;;;13.87;100.00;100278.97;5173226;27;20050;-49
2022/08/08 02:05:04;;;;;;;2.13;1.60;;;;;;;13.84;100.00;100281.63;5173777;27;20141;-48
2022/08/08 02:07:45;;;;;;;7.68;1.70;;;;;;;13.86;100.00;100276.53;5173332;27;20085;-50
2022/08/08 02:10:34;;;;;;;2.58;1.65;;;;;;;13.88;100.00;100288.03;5173739;27;20393;-50
2022/08/08 02:13:04;;;;;;;6.75;2.13;;;;;;;13.93;100.00;100287.75;5173228;27;20510;-52
2022/08/08 02:15:38;;;;;;;1.95;1.70;;;;;;;13.94;100.00;100294.06;5173067;27;20053;-48
2022/08/08 02:18:11;;;;;;;4.40;1.67;;;;;;;13.89;100.00;100287.69;5173510;27;20054;-49
2022/08/08 02:22:30;;;;;;;6.35;1.98;;;;;;;13.91;100.00;100292.03;5173411;27;20092;-48
2022/08/08 02:23:41;;;;;;;6.63;1.85;;;;;;;13.96;100.00;100289.78;5172995;27;20077;-48
2022/08/08 02:26:15;;;;;;;9.13;1.90;;;;;;;13.87;100.00;100292.75;5173015;27;20053;-48
2022/08/08 02:28:58;;;;;;;6.70;1.85;;;;;;;13.83;100.00;100302.09;5173278;27;20042;-50
2022/08/08 02:31:55;;;;;;;3.70;1.95;;;;;;;13.78;100.00;100296.84;5172942;27;20046;-49
2022/08/08 02:34:40;;;;;;;2.97;1.70;;;;;;;13.84;100.00;100301.72;5172812;27;20523;-49
2022/08/08 02:37:16;;;;;;;2.72;2.00;;;;;;;13.89;100.00;100311.66;5173198;27;20046;-48
2022/08/08 02:40:03;;;;;;;2.65;1.75;;;;;;;13.86;100.00;100318.72;5172897;27;20439;-50
2022/08/08 02:43:08;;;;;;;4.72;1.70;;;;;;;13.88;100.00;100321.09;5172716;27;20054;-49
2022/08/08 02:45:54;;;;;;;2.28;2.05;;;;;;;13.91;100.00;100317.63;5173013;27;20129;-49
2022/08/08 02:48:56;;;;;;;2.25;1.73;;;;;;;13.86;100.00;100315.13;5172672;27;20071;-49
2022/08/08 02:51:54;;;;;;;7.65;1.95;;;;;;;13.89;100.00;100319.94;5145757;27;20137;-52
2022/08/08 02:55:08;;;;;;;3.50;1.70;;;;;;;13.86;100.00;100307.69;5172670;27;20427;-49
2022/08/08 02:58:39;;;;;;;5.75;1.98;;;;;;;13.86;100.00;100315.97;5172025;27;20046;-50
2022/08/08 03:01:52;;;;;;;4.13;1.50;;;;;;;13.87;100.00;100311.25;5087913;28;20052;-50
2022/08/08 03:04:51;;;;;;;5.45;1.63;;;;;;;13.95;100.00;100313.00;5087717;28;20404;-52
2022/08/08 03:07:56;;;;;;;2.72;1.77;;;;;;;14.03;100.00;100308.44;5136690;27;20568;-51
2022/08/08 03:10:46;;;;;;;;;;;;;;;14.42;100.00;100278.91;5104510;27;20060;-50
2022/08/08 03:13:55;;;;;;;1.70;1.40;;;;;;;14.93;100.00;100226.28;5172665;27;19923;-49
2022/08/08 03:16:30;;;;;;;4.07;1.60;;;;;;;15.46;100.00;100104.75;5162221;27;20056;-49
2022/08/08 03:19:34;;;;;;;3.38;1.50;;;;;;;16.08;100.00;99921.78;5172315;27;20068;-49
2022/08/08 03:22:00;;;;;;;2.97;1.48;;;;;;;16.27;100.00;99626.69;5067194;28;20143;-49
2022/08/08 03:24:27;;;;;;;4.18;1.70;;;;;;;16.05;100.00;99559.44;5067355;28;20049;-50
2022/08/08 03:27:03;;;;;;;2.03;1.30;;;;;;;15.92;100.00;99604.03;5113061;27;20052;-50
2022/08/08 03:29:37;;;;;;;1.48;1.38;;;;;;;15.81;100.00;99633.63;5172203;27;20050;-50
2022/08/08 03:34:48;;;;;;;3.50;1.88;;;;;;;16.05;100.00;99617.53;5172327;27;20050;-51
2022/08/08 03:37:17;;;;;;;2.63;1.30;;;;;;;15.85;100.00;99623.38;5172022;27;20102;-48
2022/08/08 03:39:44;;;;;;;5.10;1.60;;;;;;;15.87;100.00;99640.38;5172186;27;20046;-49
2022/08/08 03:42:14;;;;;;;3.13;1.63;;;;;;;15.51;100.00;99687.16;5172290;27;20137;-48
2022/08/08 03:44:40;;;;;;;3.33;2.00;;;;;;;15.54;100.00;99807.97;5172215;27;20089;-50
2022/08/08 03:47:07;;;;;;;1.65;1.40;;;;;;;15.84;100.00;99768.34;5172093;27;20046;-48
2022/08/08 03:49:33;;;;;;;2.13;1.05;;;;;;;15.96;100.00;99750.63;5172359;27;20507;-49
2022/08/08 03:51:59;;;;;;;6.55;1.50;;;;;;;16.94;100.00;99576.91;5172171;27;20474;-52
2022/08/08 03:54:26;;;;;;;2.88;1.88;;;;;;;17.75;100.00;99333.03;5171745;27;20058;-52
2022/08/08 03:56:53;;;;;;;2.05;1.60;;;;;;;18.32;100.00;99099.38;5171854;27;20054;-51
2022/08/08 03:59:20;;;;;;;2.20;1.42;;;;;;;18.66;100.00;98979.13;5172052;27;20561;-50
2022/08/08 04:01:46;;;;;;;4.13;1.35;;;;;;;19.07;100.00;98897.41;5171723;27;20113;-50
2022/08/08 04:04:12;;;;;;;1.95;1.30;;;;;;;18.62;100.00;98910.97;5173208;27;20525;-50
2022/08/08 04:06:39;;;;;;;3.88;1.60;;;;;;;18.86;100.00;98920.03;5175401;27;20082;-51
2022/08/08 04:09:07;;;;;;;2.80;1.50;;;;;;;19.21;100.00;98899.09;5175366;27;20073;-52
2022/08/08 04:11:38;;;;;;;6.50;1.58;;;;;;;18.74;100.00;98888.94;5175396;27;20050;-53
2022/08/08 04:14:04;;;;;;;4.03;1.52;;;;;;;19.31;100.00;98903.63;5175732;27;20144;-52
2022/08/08 04:16:31;;;;;;;2.25;1.45;;;;;;;19.22;100.00;98878.41;5175535;27;20109;-52
2022/08/08 04:18:57;;;;;;;2.80;1.48;;;;;;;20.08;100.00;98859.75;5175524;27;20046;-53
2022/08/08 04:21:23;;;;;;;4.18;1.98;;;;;;;20.66;100.00;98857.06;5175303;27;20442;-50
2022/08/08 04:23:49;;;;;;;3.67;1.60;;;;;;;20.98;100.00;98872.06;5175172;27;20081;-53
2022/08/08 04:26:16;;;;;;;3.38;1.63;;;;;;;20.96;100.00;98883.66;5174931;27;20523;-50
2022/08/08 04:28:42;;;;;;;7.60;1.95;;;;;;;21.21;100.00;98870.97;5175118;27;20046;-52
2022/08/08 04:31:09;;;;;;;6.15;1.60;;;;;;;21.67;100.00;98928.16;5174904;27;20552;-52
2022/08/08 04:33:35;;;;;;;1.42;1.08;;;;;;;22.11;100.00;98989.00;5175141;27;20058;-49
2022/08/08 04:36:01;;;;;;;3.38;1.80;;;;;;;22.54;100.00;99059.03;5174737;27;20091;-52
2022/08/08 04:38:27;;;;;;;3.88;1.27;;;;;;;22.52;100.00;99061.47;5174961;27;20133;-52
2022/08/08 04:40:54;;;;;;;5.32;2.00;;;;;;;22.76;100.00;98997.63;5174822;27;20050;-52
2022/08/08 04:43:20;;;;;;;3.35;2.00;;;;;;;22.26;100.00;98981.78;5175051;27;20080;-49
2022/08/08 04:45:46;;;;;;;4.38;1.73;;;;;;;21.60;100.00;98931.19;5174760;27;20078;-50
2022/08/08 04:48:13;;;;;;;2.30;1.83;;;;;;;20.76;100.00;98908.09;5174757;27;20183;-53
2022/08/08 04:50:40;;;;;;;5.57;1.60;;;;;;;20.26;100.00;98875.97;5174619;27;20146;-52
2022/08/08 04:53:06;;;;;;;2.35;1.50;;;;;;;19.80;100.00;98850.13;5174612;27;20046;-48
2022/08/08 04:55:32;;;;;;;2.17;1.60;;;;;;;19.44;100.00;98862.84;5174494;27;20054;-48
2022/08/08 04:57:59;;;;;;;3.95;1.50;;;;;;;19.23;100.00;98864.13;5174387;27;20132;-48
2022/08/08 05:00:25;;;;;;;5.38;1.55;;;;;;;19.09;100.00;98878.28;5174579;27;20137;-49
2022/08/08 05:02:52;;;;;;;4.93;1.80;;;;;;;19.04;100.00;98882.38;5174392;27;20043;-51
2022/08/08 05:05:19;;;;;;;4.07;1.98;;;;;;;18.93;100.00;98887.38;5174487;27;20050;-49
2022/08/08 05:07:45;;;;;;;3.88;2.00;;;;;;;19.00;100.00;98892.78;5174312;27;20179;-49
2022/08/08 05:10:11;;;;;;;5.00;1.40;;;;;;;19.01;100.00;98913.00;5174450;27;20046;-51
2022/08/08 05:12:38;;;;;;;3.30;1.48;;;;;;;18.74;100.00;98921.47;5174209;27;20513;-50
2022/08/08 05:15:04;;;;;;;9.57;2.80;;;;;;;18.88;100.00;98932.31;5173876;27;20064;-49
2022/08/08 05:17:31;;;;;;;4.60;2.13;;;;;;;18.57;100.00;98948.34;5174452;27;20050;-50
2022/08/08 05:19:57;;;;;;;3.22;1.73;;;;;;;18.77;100.00;98971.41;5174137;27;20052;-52
2022/08/08 05:22:26;;;;;;;5.82;2.50;;;;;;;18.79;100.00;98971.75;5174081;27;20542;-52
2022/08/08 05:24:52;;;;;;;3.25;1.92;;;;;;;18.76;100.00;98963.47;5174108;27;20102;-50
2022/08/08 05:27:19;;;;;;;4.03;1.85;;;;;;;19.00;100.00;98937.22;5174179;27;20114;-59
2022/08/08 05:29:45;;;;;;;3.72;1.85;;;;;;;19.59;100.00;98905.00;5174177;27;20524;-59
2022/08/08 05:32:11;;;;;;;6.60;2.28;;;;;;;19.70;100.00;98879.75;5174161;27;20046;-59
2022/08/08 05:34:42;;;;;;;7.97;1.90;;;;;;;19.88;100.00;98865.41;5173854;27;20058;-57
2022/08/08 05:37:08;;;;;;;5.68;2.45;;;;;;;20.30;100.00;98863.56;5173990;27;20138;-56
2022/08/08 05:39:37;;;;;;;4.88;2.13;;;;;;;21.85;100.00;98835.50;5173749;27;20094;-56
2022/08/08 05:42:04;;;;;;;6.07;2.35;;;;;;;23.13;100.00;98924.50;5173939;27;20042;-56
2022/08/08 05:44:40;;;;;;;7.10;1.40;;;;;;;23.96;100.00;99247.69;5173679;27;20105;-59
2022/08/08 05:47:06;;;;;;;6.88;1.90;;;;;;;24.79;100.00;99231.41;5173662;27;20064;-59
2022/08/08 05:49:34;;;;;;;6.32;1.67;;;;;;;25.68;100.00;99336.50;5173340;27;20137;-61
2022/08/08 05:52:01;;;;;;;3.78;1.50;;;;;;;25.96;100.00;99377.50;5173532;27;20141;-59
2022/08/08 05:54:27;;;;;;;3.05;1.25;;;;;;;26.01;100.00;99398.56;5173651;27;20493;-57
2022/08/08 05:56:55;;;;;;;4.90;1.13;;;;;;;26.77;100.00;99430.66;5173383;27;20082;-57
2022/08/08 05:59:24;;;;;;;2.65;1.33;;;;;;;27.41;100.00;99436.19;5173686;27;20386;-58
2022/08/08 06:01:53;;;;;;;2.20;1.10;;;;;;;26.59;100.00;99422.22;5173443;27;20045;-59
2022/08/08 06:04:23;;;;;;;4.32;1.30;;;;;;;27.06;100.00;99441.44;5173654;27;20053;-57
2022/08/08 06:06:51;;;;;;;4.68;1.50;;;;;;;26.73;100.00;99467.38;5173267;27;20054;-59
2022/08/08 06:09:22;;;;;;;5.35;1.80;;;;;;;25.31;100.00;99342.78;5173433;27;20053;-58
2022/08/08 06:11:49;;;;;;;4.45;1.35;;;;;;;24.16;100.00;99349.00;5173638;27;20054;-57
2022/08/08 06:14:16;;;;;;;6.88;1.50;;;;;;;24.10;100.00;99324.81;5173210;27;20054;-58
2022/08/08 06:16:43;;;;;;;4.30;1.50;;;;;;;23.90;100.00;99289.47;5172959;27;20072;-57
2022/08/08 06:19:11;;;;;;;8.00;1.52;;;;;;;23.85;100.00;99292.84;5173160;27;20078;-60
2022/08/08 06:21:37;;;;;;;10.40;1.92;;;;;;;24.31;100.00;99301.63;5172827;27;20141;-60
2022/08/08 06:24:05;;;;;;;7.20;1.60;;;;;;;24.85;100.00;99336.91;5173380;27;20058;-60
2022/08/08 06:26:41;;;;;;;4.57;1.60;;;;;;;25.53;100.00;99364.38;5172315;27;20049;-61
2022/08/08 06:29:08;;;;;;;1.52;1.25;;;;;;;25.78;100.00;99442.75;5172781;27;20050;-61
2022/08/08 06:31:37;;;;;;;4.63;1.35;;;;;;;25.34;100.00;99412.00;5173270;27;20445;-61
2022/08/08 06:34:08;;;;;;;4.13;1.38;;;;;;;25.03;100.00;99371.91;5172949;27;20572;-60
2022/08/08 06:36:36;;;;;;;3.55;1.00;;;;;;;25.70;100.00;99444.31;5172909;27;20525;-59
2022/08/08 06:39:04;;;;;;;2.53;1.10;;;;;;;26.55;100.00;99467.34;5172707;27;20053;-59
2022/08/08 06:41:32;;;;;;;9.07;1.75;;;;;;;25.89;100.00;99464.84;5172574;27;20420;-62
2022/08/08 06:44:02;;;;;;;9.65;1.30;;;;;;;25.83;100.00;99468.72;5172473;27;20050;-60
2022/08/08 06:46:29;;;;;;;3.15;1.10;;;;;;;25.81;100.00;99463.56;5172601;27;20054;-61
2022/08/08 06:48:56;;;;;;;1.98;1.17;;;;;;;25.95;100.00;99439.72;5172690;27;20046;-56
2022/08/08 06:51:23;;;;;;;5.32;1.58;;;;;;;27.05;100.00;99456.72;5172503;27;20086;-62
2022/08/08 06:53:49;;;;;;;3.35;1.50;;;;;;;27.34;100.00;99484.41;5172454;27;20049;-62
2022/08/08 06:56:15;;;;;;;3.05;1.00;;;;;;;28.27;100.00;99504.59;5172448;27;20094;-61
2022/08/08 06:58:42;;;;;;;2.35;0.93;;;;;;;28.60;100.00;99510.22;5172418;27;20046;-61
2022/08/08 07:01:10;;;;;;;1.98;1.00;;;;;;;28.89;100.00;99508.72;5172377;27;20054;-62
2022/08/08 07:03:45;;;;;;;6.13;1.23;;;;;;;29.08;100.00;99522.22;5172250;27;20049;-62
2022/08/08 07:06:18;;;;;;;3.85;0.98;;;;;;;29.01;100.00;99552.88;5172210;27;20050;-62
2022/08/08 07:08:47;;;;;;;5.65;1.30;;;;;;;29.80;100.00;99538.19;5172389;27;20078;-61
2022/08/08 07:11:19;;;;;;;3.50;1.05;;;;;;;29.76;100.00;99549.69;5172198;27;20042;-61
2022/08/08 07:13:48;;;;;;;2.90;1.05;;;;;;;29.93;100.00;99561.28;5172311;27;20053;-62
2022/08/08 07:16:21;;;;;;;3.10;1.75;;;;;;;29.98;100.00;99560.59;5172073;27;20046;-62
2022/08/08 07:19:05;;;;;;;2.03;0.93;;;;;;;30.45;98.14;99563.63;5172106;27;20050;-62
2022/08/08 07:21:41;;;;;;;2.25;0.93;;;;;;;29.91;96.71;99575.13;5172627;27;20121;-62
2022/08/08 07:24:12;;;;;;;2.85;0.90;;;;;;;30.47;93.36;99584.50;5172563;27;20103;-62
2022/08/08 07:26:40;;;;;;;2.80;1.13;;;;;;;29.88;90.51;99592.28;5172165;27;20133;-62
2022/08/08 07:29:06;;;;;;;12.85;1.60;;;;;;;29.70;92.37;99587.59;5172327;27;20047;-62
2022/08/08 07:31:34;;;;;;;5.30;1.35;;;;;;;29.84;93.04;99586.81;5171937;27;20053;-62
2022/08/08 07:34:02;;;;;;;3.90;1.30;;;;;;;29.72;91.43;99588.69;5172060;27;20056;-62
2022/08/08 07:36:30;;;;;;;2.70;0.90;;;;;;;30.39;87.50;99591.88;5171967;27;20132;-62
2022/08/08 07:38:58;;;;;;;5.03;1.27;;;;;;;30.85;89.88;99585.56;5174892;27;20190;-62
2022/08/08 07:41:26;;;;;;;4.88;1.20;;;;;;;30.36;84.78;99598.50;5175451;27;20151;-62
2022/08/08 07:43:54;;;;;;;2.42;1.00;;;;;;;30.21;86.57;99600.56;5175573;27;20046;-62
2022/08/08 07:46:20;;;;;;;2.65;0.93;;;;;;;31.25;81.89;99608.72;5175508;27;20129;-62
2022/08/08 07:48:47;;;;;;;3.55;1.00;;;;;;;31.08;78.38;99609.28;5175577;27;20137;-62
2022/08/08 07:51:13;;;;;;;3.55;1.13;;;;;;;32.00;88.20;99585.06;5175649;27;20050;-62
2022/08/08 07:53:44;;;;;;;3.05;1.00;;;;;;;31.17;79.88;99605.53;5175569;27;20058;-62
2022/08/08 07:56:15;;;;;;;3.35;1.17;;;;;;;29.45;88.97;99589.69;5175776;27;20094;-62
2022/08/08 07:58:43;;;;;;;2.63;1.10;;;;;;;28.90;88.78;99581.63;5175354;27;20059;-62
2022/08/08 08:01:14;;;;;;;4.03;1.48;;;;;;;28.12;98.21;99560.88;5175510;27;20246;-61
2022/08/08 08:03:51;;;;;;;3.15;1.67;;;;;;;26.79;100.00;99556.75;5175265;27;20413;-61
2022/08/08 08:06:19;;;;;;;1.98;1.42;;;;;;;26.41;100.00;99530.56;5175452;27;20054;-61
2022/08/08 08:08:48;;;;;;;3.38;1.42;;;;;;;26.35;100.00;99538.03;5175104;27;20141;-61
2022/08/08 08:11:19;;;;;;;4.10;1.23;;;;;;;25.64;100.00;99504.31;5175153;27;20058;-61
2022/08/08 08:13:53;;;;;;;1.75;0.95;;;;;;;25.29;100.00;99499.59;5175195;27;20493;-62
2022/08/08 08:16:22;;;;;;;1.73;1.02;;;;;;;24.91;100.00;99470.91;5175377;27;20576;-61
2022/08/08 08:18:52;;;;;;;2.00;1.15;;;;;;;25.15;100.00;99438.38;5175428;27;20560;-61
2022/08/08 08:21:20;;;;;;;6.50;2.35;;;;;;;26.70;100.00;99488.00;5175076;27;20054;-61
2022/08/08 08:23:46;;;;;;;1.55;1.40;;;;;;;27.73;100.00;99531.72;5175118;27;20042;-61
2022/08/08 08:26:13;;;;;;;2.80;1.40;;;;;;;28.38;94.07;99561.22;5174966;27;20088;-61
2022/08/08 08:28:40;;;;;;;1.38;0.90;;;;;;;29.16;96.95;99553.72;5175007;27;20050;-61
2022/08/08 08:31:07;;;;;;;3.25;0.90;;;;;;;29.25;92.70;99561.31;5174726;27;20494;-62
2022/08/08 08:33:33;;;;;;;2.22;1.30;;;;;;;29.95;92.82;99555.13;5174934;27;20078;-62
2022/08/08 08:36:00;;;;;;;3.53;1.00;;;;;;;28.64;99.55;99538.25;5174742;27;20057;-61
2022/08/08 08:38:27;;;;;;;3.33;1.73;;;;;;;28.56;100.00;99527.31;5174832;27;20065;-61
2022/08/08 08:40:53;;;;;;;1.15;0.85;;;;;;;28.93;98.53;99543.22;5174605;27;20046;-61
2022/08/08 08:43:20;;;;;;;3.13;1.00;;;;;;;29.33;89.73;99561.72;5174868;27;20596;-62
2022/08/08 08:45:48;;;;;;;2.35;0.80;;;;;;;30.22;84.01;99573.84;5174918;27;20050;-61
2022/08/08 08:48:17;;;;;;;3.63;1.70;;;;;;;30.47;90.57;99561.09;5174697;27;20042;-62
2022/08/08 08:50:44;;;;;;;2.22;1.00;;;;;;;29.90;90.63;99564.31;5174199;27;20115;-62
2022/08/08 08:53:13;;;;;;;3.45;1.05;;;;;;;29.76;95.78;99543.28;5174699;27;20106;-62
2022/08/08 08:55:40;;;;;;;1.75;0.70;;;;;;;28.97;99.90;99530.47;5174721;27;20057;-62
2022/08/08 08:58:09;;;;;;;2.33;0.80;;;;;;;28.32;99.96;99526.47;5174570;27;20078;-61
2022/08/08 09:00:36;;;;;;;3.17;1.05;;;;;;;27.45;100.00;99529.72;5174497;27;20094;-61
2022/08/08 09:03:08;;;;;;;1.92;0.90;;;;;;;28.22;100.00;99516.50;5174301;27;20137;-62
2022/08/08 09:05:38;;;;;;;1.50;0.80;;;;;;;28.19;100.00;99512.63;5174219;27;20141;-61
2022/08/08 09:08:07;;;;;;;1.75;0.88;;;;;;;27.51;100.00;99509.38;5174526;27;20410;-61
2022/08/08 09:10:36;;;;;;;2.65;0.90;;;;;;;26.90;100.00;99506.47;5174238;27;20049;-61
2022/08/08 09:13:05;;;;;;;3.05;1.40;;;;;;;26.37;100.00;99503.84;5174495;27;20102;-61
2022/08/08 09:15:32;;;;;;;2.33;0.90;;;;;;;25.90;100.00;99479.69;5174027;27;20046;-61
2022/08/08 09:17:58;;;;;;;3.60;1.05;;;;;;;25.66;100.00;99462.50;5174325;27;20046;-61
2022/08/08 09:20:27;;;;;;;2.45;1.63;;;;;;;26.01;100.00;99472.38;5174049;27;20089;-61
2022/08/08 09:22:54;;;;;;;4.10;2.08;;;;;;;26.95;100.00;99472.06;5174198;27;20046;-61
2022/08/08 09:25:20;;;;;;;3.70;1.27;;;;;;;27.30;100.00;99505.53;5173939;27;20136;-61
2022/08/08 09:27:46;;;;;;;3.90;0.80;;;;;;;27.48;92.63;99538.50;5174067;27;20102;-61
2022/08/08 09:30:15;;;;;;;1.65;1.15;;;;;;;27.64;100.00;99516.38;5173991;27;20546;-61
2022/08/08 09:32:43;;;;;;;3.08;1.00;;;;;;;27.45;94.71;99529.72;5174002;27;20454;-62
2022/08/08 09:35:12;;;;;;;2.15;1.15;;;;;;;27.80;91.36;99532.19;5173676;27;20194;-61
2022/08/08 09:37:44;;;;;;;3.10;1.00;;;;;;;28.67;84.70;99557.03;5173772;27;20052;-61
2022/08/08 09:40:12;;;;;;;2.30;1.13;;;;;;;28.73;88.93;99536.13;5174120;27;20089;-61
2022/08/08 09:42:40;;;;;;;1.92;0.82;;;;;;;29.23;87.05;99546.91;5173654;27;20077;-61
2022/08/08 09:45:08;;;;;;;2.58;1.33;;;;;;;28.90;92.83;99525.19;5173562;27;20085;-61
2022/08/08 09:47:36;;;;;;;1.67;1.00;;;;;;;29.40;90.49;99531.06;5173666;27;20148;-61
2022/08/08 09:50:06;;;;;;;1.65;0.90;;;;;;;27.79;91.88;99529.81;5174147;27;20576;-61
2022/08/08 09:52:34;;;;;;;1.75;0.60;;;;;;;26.79;89.36;99540.69;5173494;27;20061;-61
2022/08/08 09:55:02;;;;;;;1.63;0.70;;;;;;;26.78;97.68;99525.03;5173502;27;20454;-61
2022/08/08 09:57:32;;;;;;;1.50;1.00;;;;;;;26.55;100.00;99495.47;5173553;27;20049;-61
2022/08/08 09:59:59;;;;;;;0.98;0.90;;;;;;;26.50;100.00;99510.16;5173472;27;20110;-61
2022/08/08 10:02:35;;;;;;;2.53;0.90;;;;;;;26.09;100.00;99478.50;5172149;27;20054;-61
2022/08/08 10:05:07;;;;;;;3.08;0.90;;;;;;;26.15;100.00;99470.22;5173234;27;20082;-61
2022/08/08 10:07:34;;;;;;;3.30;1.05;;;;;;;25.85;100.00;99447.34;5173893;27;20160;-61
2022/08/08 10:10:01;;;;;;;1.13;0.90;;;;;;;24.96;100.00;99451.50;5173850;27;20046;-61
2022/08/08 10:12:36;;;;;;;2.40;1.08;;;;;;;25.15;100.00;99438.38;5173828;27;20157;-61
2022/08/08 10:15:04;;;;;;;2.15;0.90;;;;;;;24.89;100.00;99449.72;5173154;27;20511;-61
2022/08/08 10:17:31;;;;;;;1.67;0.90;;;;;;;25.00;100.00;99445.75;5173398;27;20054;-60
2022/08/08 10:20:00;;;;;;;1.60;1.10;;;;;;;24.79;100.00;99439.69;5173210;27;20046;-60
2022/08/08 10:22:27;;;;;;;2.97;1.10;;;;;;;25.18;100.00;99450.72;5172806;27;20046;-60
2022/08/08 10:25:01;;;;;;;2.72;1.10;;;;;;;25.07;100.00;99468.72;5172901;27;20046;-60
2022/08/08 10:27:29;;;;;;;1.50;1.00;;;;;;;25.85;100.00;99458.56;5173046;27;20050;-60
2022/08/08 10:29:59;;;;;;;1.77;1.10;;;;;;;26.47;100.00;99494.19;5172893;27;20075;-60
2022/08/08 10:32:36;;;;;;;1.85;0.90;;;;;;;25.41;97.28;99525.25;5172885;27;20057;-60
2022/08/08 10:35:05;;;;;;;3.40;1.15;;;;;;;25.46;100.00;99472.09;5172747;27;20611;-61
2022/08/08 10:37:33;;;;;;;1.23;0.90;;;;;;;25.16;100.00;99498.88;5172799;27;20054;-60
2022/08/08 10:40:10;;;;;;;4.72;1.30;;;;;;;24.31;100.00;99446.53;5172994;27;20101;-60
2022/08/08 10:42:39;;;;;;;1.52;0.88;;;;;;;24.39;100.00;99425.44;5172811;27;20046;-60
2022/08/08 10:45:07;;;;;;;3.67;1.40;;;;;;;24.21;100.00;99408.47;5172494;27;20057;-60
2022/08/08 10:47:34;;;;;;;2.78;1.00;;;;;;;24.21;100.00;99400.84;5172722;27;20058;-60
2022/08/08 10:50:04;;;;;;;1.35;0.80;;;;;;;24.11;100.00;99399.97;5172586;27;20080;-60
2022/08/08 10:52:32;;;;;;;1.75;1.00;;;;;;;24.13;100.00;99394.69;5172676;27;20098;-60
2022/08/08 10:55:00;;;;;;;1.52;1.20;;;;;;;24.63;100.00;99404.19;5172544;27;20046;-60
2022/08/08 10:57:27;;;;;;;6.30;1.00;;;;;;;25.31;100.00;99393.28;5172455;27;20046;-60
2022/08/08 10:59:55;;;;;;;2.20;1.30;;;;;;;25.89;100.00;99459.25;5172335;27;20140;-61
2022/08/08 11:02:26;;;;;;;1.05;0.82;;;;;;;26.18;100.00;99458.06;5172338;27;20046;-61
2022/08/08 11:04:56;;;;;;;1.58;1.10;;;;;;;26.83;100.00;99444.88;5172501;27;20394;-61
2022/08/08 11:07:27;;;;;;;2.03;0.90;;;;;;;25.96;100.00;99486.25;5172229;27;20132;-60
2022/08/08 11:09:53;;;;;;;3.63;0.95;;;;;;;26.25;92.28;99503.50;5172621;27;20050;-60
2022/08/08 11:12:20;;;;;;;2.10;0.90;;;;;;;26.62;97.80;99492.34;5171894;27;20046;-61
2022/08/08 11:14:55;;;;;;;2.88;1.17;;;;;;;25.66;100.00;99462.50;5172945;27;20133;-61
2022/08/08 11:17:25;;;;;;;1.85;0.98;;;;;;;25.29;100.00;99437.88;5172151;27;20527;-61
2022/08/08 11:19:52;;;;;;;1.35;0.80;;;;;;;24.50;100.00;99411.09;5172354;27;20054;-60
2022/08/08 11:22:24;;;;;;;2.17;1.17;;;;;;;24.30;100.00;99406.53;5171985;27;20458;-61
2022/08/08 11:24:52;;;;;;;3.30;1.60;;;;;;;24.22;100.00;99394.00;5172190;27;20050;-60
2022/08/08 11:27:23;;;;;;;3.15;1.30;;;;;;;24.83;100.00;99411.53;5172066;27;20501;-57
2022/08/08 11:29:53;;;;;;;1.33;0.90;;;;;;;24.71;100.00;99429.94;5172457;27;20046;-56
2022/08/08 11:32:24;;;;;;;0.93;0.80;;;;;;;24.41;100.00;99401.34;5172453;27;20149;-57
2022/08/08 11:34:54;;;;;;;1.40;0.82;;;;;;;24.69;100.00;99440.03;5171855;27;20050;-56
2022/08/08 11:37:21;;;;;;;1.83;1.00;;;;;;;24.81;100.00;99397.94;5171800;27;20054;-56
2022/08/08 11:39:49;;;;;;;2.58;0.88;;;;;;;25.00;100.00;99440.16;5172006;27;20098;-54
2022/08/08 11:42:17;;;;;;;2.70;0.95;;;;;;;24.82;100.00;99458.38;5172224;27;20046;-56
2022/08/08 11:44:44;;;;;;;4.55;1.20;;;;;;;24.49;100.00;99429.13;5171730;27;20478;-58
2022/08/08 11:47:11;;;;;;;1.52;0.93;;;;;;;24.81;100.00;99423.19;5171739;27;20046;-52
2022/08/08 11:49:39;;;;;;;2.80;0.90;;;;;;;24.31;100.00;99418.53;5171669;27;20574;-53
2022/08/08 11:52:06;;;;;;;0.80;0.80;;;;;;;23.97;100.00;99416.47;5171594;27;20097;-54
2022/08/08 11:54:34;;;;;;;1.08;0.70;;;;;;;24.27;100.00;99462.69;5171415;27;20504;-54
2022/08/08 11:57:11;;;;;;;1.13;0.77;;;;;;;24.54;100.00;99454.56;5171528;27;20053;-54